Wetterdaten: Woche 26.03.18 - 01.04.18 (KW13)
Datum Zeit Temperatur Luftfeuchte Luftdruck Niederschlag Windrichtung Sonnenschein Solar Wind
26.03.2018 00:00 6,2 C 71 % 1007,3 hPa 0,0 l/m N-NO 0,00 h 0 W/m 4,4 km/h (1 Bft)
26.03.2018 01:00 5,5 C 72 % 1007,7 hPa 0,0 l/m N 0,00 h 0 W/m 4,5 km/h (1 Bft)
26.03.2018 02:00 4,8 C 74 % 1007,9 hPa 0,0 l/m N 0,00 h 0 W/m 5,3 km/h (1 Bft)
26.03.2018 03:00 4,4 C 76 % 1007,9 hPa 0,0 l/m N 0,00 h 0 W/m 5,1 km/h (1 Bft)
26.03.2018 04:00 4,6 C 78 % 1008,1 hPa 0,0 l/m N 0,00 h 0 W/m 3,2 km/h (1 Bft)
26.03.2018 05:00 4,8 C 78 % 1008,3 hPa 0,0 l/m N 0,00 h 0 W/m 0,9 km/h (0 Bft)
26.03.2018 06:00 4,4 C 79 % 1008,7 hPa 0,0 l/m N 0,00 h 0 W/m 0,0 km/h (0 Bft)
26.03.2018 07:00 3,8 C 81 % 1009,1 hPa 0,0 l/m N 0,00 h 16 W/m 1,3 km/h (1 Bft)
26.03.2018 08:00 3,9 C 83 % 1009,7 hPa 0,0 l/m N 0,08 h 92 W/m 0,0 km/h (0 Bft)
26.03.2018 09:00 4,9 C 84 % 1010,2 hPa 0,0 l/m N 0,00 h 138 W/m 0,0 km/h (0 Bft)
26.03.2018 10:00 6,9 C 73 % 1010,6 hPa 0,0 l/m N 0,33 h 275 W/m 6,7 km/h (2 Bft)
26.03.2018 11:00 8,2 C 66 % 1010,9 hPa 0,0 l/m NW 0,42 h 339 W/m 8,3 km/h (2 Bft)
26.03.2018 12:00 9,2 C 58 % 1010,9 hPa 0,0 l/m NW 0,58 h 395 W/m 8,4 km/h (2 Bft)
26.03.2018 13:00 8,9 C 54 % 1011,0 hPa 0,0 l/m NW 0,00 h 204 W/m 9,0 km/h (2 Bft)
26.03.2018 14:00 9,0 C 52 % 1011,3 hPa 0,0 l/m W-NW 0,00 h 176 W/m 13,8 km/h (3 Bft)
26.03.2018 15:00 8,7 C 57 % 1011,7 hPa 0,0 l/m N-NW 0,00 h 223 W/m 10,9 km/h (2 Bft)
26.03.2018 16:00 8,4 C 59 % 1012,1 hPa 0,0 l/m N-NO 0,00 h 215 W/m 14,8 km/h (3 Bft)
26.03.2018 17:00 8,0 C 64 % 1012,7 hPa 0,0 l/m N-NO 0,00 h 117 W/m 8,8 km/h (2 Bft)
26.03.2018 18:00 7,4 C 66 % 1013,1 hPa 0,0 l/m N-NO 0,00 h 32 W/m 6,5 km/h (2 Bft)
26.03.2018 19:00 6,7 C 68 % 1013,5 hPa 0,0 l/m N-NW 0,00 h 9 W/m 4,5 km/h (1 Bft)
26.03.2018 20:00 6,3 C 68 % 1014,0 hPa 0,0 l/m N 0,00 h 0 W/m 0,4 km/h (0 Bft)
26.03.2018 21:00 5,7 C 70 % 1014,5 hPa 0,0 l/m N 0,00 h 0 W/m 0,0 km/h (0 Bft)
26.03.2018 22:00 4,7 C 72 % 1014,9 hPa 0,0 l/m N 0,00 h 0 W/m 0,0 km/h (0 Bft)
26.03.2018 23:00 3,3 C 75 % 1015,0 hPa 0,0 l/m N 0,00 h 0 W/m 0,0 km/h (0 Bft)
27.03.2018 00:00 2,7 C 80 % 1014,9 hPa 0,0 l/m N 0,00 h 0 W/m 0,0 km/h (0 Bft)
27.03.2018 01:00 2,8 C 83 % 1014,9 hPa 0,0 l/m N 0,00 h 0 W/m 0,0 km/h (0 Bft)
27.03.2018 02:00 2,9 C 85 % 1014,9 hPa 0,0 l/m N 0,00 h 0 W/m 0,0 km/h (0 Bft)
27.03.2018 03:00 3,1 C 86 % 1014,9 hPa 0,0 l/m N-NW 0,00 h 0 W/m 1,7 km/h (1 Bft)
27.03.2018 04:00 3,4 C 88 % 1014,8 hPa 0,0 l/m N 0,00 h 0 W/m 0,1 km/h (0 Bft)
27.03.2018 05:00 3,3 C 89 % 1014,6 hPa 0,0 l/m N-NW 0,00 h 0 W/m 1,5 km/h (1 Bft)
27.03.2018 06:00 3,1 C 90 % 1014,9 hPa 0,0 l/m N 0,00 h 0 W/m 0,7 km/h (0 Bft)
27.03.2018 07:00 2,7 C 91 % 1015,1 hPa 0,0 l/m N 0,00 h 18 W/m 0,0 km/h (0 Bft)
27.03.2018 08:00 2,6 C 94 % 1015,4 hPa 0,0 l/m W-SW 0,00 h 91 W/m 3,2 km/h (1 Bft)
27.03.2018 09:00 3,7 C 95 % 1015,6 hPa 0,0 l/m S-SW 0,58 h 258 W/m 11,7 km/h (2 Bft)
27.03.2018 10:00 5,5 C 89 % 1015,6 hPa 0,0 l/m S-SW 1,00 h 479 W/m 15,4 km/h (3 Bft)
27.03.2018 11:00 7,1 C 80 % 1015,3 hPa 0,0 l/m S-SW 0,92 h 593 W/m 17,8 km/h (3 Bft)
27.03.2018 12:00 8,3 C 72 % 1014,8 hPa 0,0 l/m S-SW 0,83 h 637 W/m 18,2 km/h (3 Bft)
27.03.2018 13:00 7,6 C 67 % 1014,2 hPa 0,0 l/m W-SW 0,25 h 351 W/m 19,4 km/h (3 Bft)
27.03.2018 14:00 8,9 C 58 % 1013,2 hPa 0,0 l/m W-SW 0,75 h 604 W/m 17,3 km/h (3 Bft)
27.03.2018 15:00 9,6 C 55 % 1012,0 hPa 0,0 l/m W-SW 0,67 h 469 W/m 19,4 km/h (3 Bft)
27.03.2018 16:00 9,1 C 55 % 1011,4 hPa 0,0 l/m SW 0,58 h 289 W/m 19,2 km/h (3 Bft)
27.03.2018 17:00 8,8 C 54 % 1010,8 hPa 0,0 l/m SW 0,33 h 171 W/m 15,8 km/h (3 Bft)
27.03.2018 18:00 8,1 C 59 % 1010,0 hPa 0,0 l/m SW 0,08 h 72 W/m 9,4 km/h (2 Bft)
27.03.2018 19:00 7,6 C 62 % 1009,7 hPa 0,0 l/m SW 0,33 h 31 W/m 11,4 km/h (2 Bft)
27.03.2018 20:00 7,0 C 64 % 1009,8 hPa 0,0 l/m W-SW 0,00 h 0 W/m 12,1 km/h (2 Bft)
27.03.2018 21:00 6,1 C 76 % 1010,0 hPa 0,0 l/m W-SW 0,00 h 0 W/m 11,7 km/h (2 Bft)
27.03.2018 22:00 5,0 C 86 % 1009,8 hPa 0,6 l/m SW 0,00 h 0 W/m 14,2 km/h (3 Bft)
27.03.2018 23:00 4,2 C 92 % 1009,2 hPa 0,2 l/m W-SW 0,00 h 0 W/m 17,4 km/h (3 Bft)
28.03.2018 00:00 4,2 C 94 % 1008,9 hPa 0,4 l/m W-SW 0,00 h 0 W/m 18,4 km/h (3 Bft)
28.03.2018 01:00 4,3 C 95 % 1008,7 hPa 0,2 l/m W-SW 0,00 h 0 W/m 19,2 km/h (3 Bft)
28.03.2018 02:00 4,8 C 96 % 1008,4 hPa 0,0 l/m W-SW 0,00 h 0 W/m 21,7 km/h (4 Bft)
28.03.2018 03:00 5,1 C 96 % 1008,1 hPa 0,8 l/m SW 0,00 h 0 W/m 16,4 km/h (3 Bft)
28.03.2018 04:00 5,2 C 96 % 1008,0 hPa 0,2 l/m W-SW 0,00 h 0 W/m 17,7 km/h (3 Bft)
28.03.2018 05:00 5,5 C 97 % 1007,9 hPa 0,6 l/m W-SW 0,00 h 0 W/m 15,0 km/h (3 Bft)
28.03.2018 06:00 5,9 C 97 % 1008,0 hPa 0,0 l/m W-SW 0,00 h 0 W/m 18,0 km/h (3 Bft)
28.03.2018 07:00 6,0 C 97 % 1008,0 hPa 0,0 l/m W-SW 0,08 h 27 W/m 22,6 km/h (4 Bft)
28.03.2018 08:00 6,5 C 96 % 1008,0 hPa 0,0 l/m SW 0,00 h 89 W/m 24,3 km/h (4 Bft)
28.03.2018 09:00 7,3 C 93 % 1007,8 hPa 0,0 l/m W-SW 0,08 h 173 W/m 21,2 km/h (4 Bft)
28.03.2018 10:00 8,2 C 89 % 1007,5 hPa 0,0 l/m SW 0,00 h 200 W/m 21,3 km/h (4 Bft)
28.03.2018 11:00 8,5 C 88 % 1007,2 hPa 0,0 l/m W 0,00 h 229 W/m 25,7 km/h (4 Bft)
28.03.2018 12:00 8,6 C 88 % 1006,9 hPa 0,0 l/m W-SW 0,00 h 152 W/m 22,8 km/h (4 Bft)
28.03.2018 13:00 9,5 C 86 % 1006,0 hPa 0,0 l/m W-SW 0,17 h 277 W/m 22,7 km/h (4 Bft)
28.03.2018 14:00 10,0 C 83 % 1004,9 hPa 0,0 l/m SW 0,00 h 204 W/m 24,3 km/h (4 Bft)
28.03.2018 15:00 10,7 C 81 % 1003,8 hPa 0,0 l/m W-SW 0,00 h 221 W/m 28,6 km/h (4 Bft)
28.03.2018 16:00 9,8 C 87 % 1003,0 hPa 0,2 l/m W-SW 0,00 h 122 W/m 26,1 km/h (4 Bft)
28.03.2018 17:00 9,2 C 90 % 1002,2 hPa 0,2 l/m W-SW 0,00 h 78 W/m 27,9 km/h (4 Bft)
28.03.2018 18:00 9,0 C 93 % 1001,5 hPa 0,4 l/m SW 0,00 h 31 W/m 22,1 km/h (4 Bft)
28.03.2018 19:00 8,9 C 93 % 1001,3 hPa 0,2 l/m W-SW 0,00 h 10 W/m 24,4 km/h (4 Bft)
28.03.2018 20:00 8,9 C 94 % 1001,1 hPa 0,2 l/m W-SW 0,00 h 0 W/m 24,8 km/h (4 Bft)
28.03.2018 21:00 9,1 C 92 % 1001,4 hPa 0,0 l/m W-SW 0,00 h 0 W/m 31,1 km/h (5 Bft)
28.03.2018 22:00 8,9 C 91 % 1001,8 hPa 0,2 l/m W-SW 0,00 h 0 W/m 23,3 km/h (4 Bft)
28.03.2018 23:00 8,3 C 91 % 1001,7 hPa 0,0 l/m W-SW 0,00 h 0 W/m 20,6 km/h (4 Bft)
29.03.2018 00:00 7,7 C 91 % 1002,4 hPa 0,4 l/m W-SW 0,00 h 0 W/m 20,2 km/h (4 Bft)
29.03.2018 01:00 6,4 C 90 % 1003,0 hPa 0,4 l/m W 0,00 h 0 W/m 20,3 km/h (4 Bft)
29.03.2018 02:00 5,8 C 90 % 1003,8 hPa 0,6 l/m W-SW 0,00 h 0 W/m 15,4 km/h (3 Bft)
29.03.2018 03:00 5,3 C 91 % 1004,4 hPa 0,2 l/m W 0,00 h 0 W/m 9,5 km/h (2 Bft)
29.03.2018 04:00 5,1 C 92 % 1005,2 hPa 0,0 l/m W-NW 0,00 h 0 W/m 7,7 km/h (2 Bft)
29.03.2018 05:00 4,6 C 91 % 1005,4 hPa 0,0 l/m W-NW 0,00 h 0 W/m 2,9 km/h (1 Bft)
29.03.2018 06:00 4,1 C 91 % 1005,7 hPa 0,0 l/m N 0,00 h 0 W/m 0,0 km/h (0 Bft)
29.03.2018 07:00 3,8 C 92 % 1006,0 hPa 0,0 l/m N 0,00 h 18 W/m 0,1 km/h (0 Bft)
29.03.2018 08:00 3,8 C 92 % 1006,4 hPa 0,0 l/m W-NW 0,00 h 63 W/m 1,2 km/h (1 Bft)
29.03.2018 09:00 4,9 C 89 % 1006,7 hPa 0,0 l/m W-SW 0,33 h 190 W/m 1,5 km/h (1 Bft)
29.03.2018 10:00 6,3 C 83 % 1006,7 hPa 0,0 l/m SW 0,92 h 350 W/m 12,6 km/h (3 Bft)
29.03.2018 11:00 7,1 C 79 % 1006,7 hPa 0,0 l/m SW 0,83 h 398 W/m 16,2 km/h (3 Bft)
29.03.2018 12:00 7,5 C 76 % 1006,4 hPa 0,0 l/m SW 0,42 h 366 W/m 15,4 km/h (3 Bft)
29.03.2018 13:00 7,7 C 71 % 1006,2 hPa 0,0 l/m SW 0,08 h 302 W/m 14,6 km/h (3 Bft)
29.03.2018 14:00 8,1 C 66 % 1005,7 hPa 0,0 l/m W-SW 0,42 h 384 W/m 11,8 km/h (2 Bft)
29.03.2018 15:00 8,9 C 61 % 1005,3 hPa 0,0 l/m SW 0,42 h 313 W/m 12,4 km/h (3 Bft)
29.03.2018 16:00 8,2 C 64 % 1005,2 hPa 0,0 l/m W-SW 0,00 h 123 W/m 9,5 km/h (2 Bft)
29.03.2018 17:00 6,8 C 78 % 1005,6 hPa 0,6 l/m W-NW 0,00 h 39 W/m 9,1 km/h (2 Bft)
29.03.2018 18:00 5,3 C 91 % 1006,2 hPa 0,6 l/m NW 0,00 h 28 W/m 4,4 km/h (1 Bft)
29.03.2018 19:00 5,2 C 92 % 1006,9 hPa 0,2 l/m W-NW 0,08 h 13 W/m 4,8 km/h (1 Bft)
29.03.2018 20:00 4,7 C 94 % 1006,9 hPa 0,0 l/m N 0,00 h 0 W/m 0,5 km/h (0 Bft)
29.03.2018 21:00 4,0 C 94 % 1007,2 hPa 0,0 l/m W-NW 0,00 h 0 W/m 1,3 km/h (1 Bft)
29.03.2018 22:00 3,2 C 95 % 1007,3 hPa 0,0 l/m W-SW 0,00 h 0 W/m 4,2 km/h (1 Bft)
29.03.2018 23:00 3,0 C 95 % 1007,3 hPa 0,0 l/m W-SW 0,00 h 0 W/m 2,7 km/h (1 Bft)
30.03.2018 00:00 2,2 C 95 % 1007,6 hPa 0,0 l/m W-SW 0,00 h 0 W/m 0,7 km/h (0 Bft)
30.03.2018 01:00 1,5 C 95 % 1007,5 hPa 0,0 l/m N 0,00 h 0 W/m 0,0 km/h (0 Bft)
30.03.2018 02:00 1,4 C 96 % 1007,0 hPa 0,0 l/m N 0,00 h 0 W/m 0,0 km/h (0 Bft)
30.03.2018 03:00 0,8 C 96 % 1006,9 hPa 0,0 l/m N 0,00 h 0 W/m 0,0 km/h (0 Bft)
30.03.2018 04:00 0,4 C 96 % 1006,2 hPa 0,2 l/m N 0,00 h 0 W/m 0,0 km/h (0 Bft)
30.03.2018 05:00 0,1 C 97 % 1005,9 hPa 0,0 l/m N 0,00 h 0 W/m 0,0 km/h (0 Bft)
30.03.2018 06:00 -0,2 C 97 % 1005,5 hPa 0,0 l/m W-SW 0,00 h 0 W/m 0,4 km/h (0 Bft)
30.03.2018 07:00 -0,6 C 97 % 1005,2 hPa 0,0 l/m W-SW 0,00 h 17 W/m 4,5 km/h (1 Bft)
30.03.2018 08:00 -0,4 C 97 % 1004,9 hPa 0,0 l/m N 0,00 h 70 W/m 0,0 km/h (0 Bft)
30.03.2018 09:00 0,0 C 98 % 1004,6 hPa 0,0 l/m W-SW 0,00 h 117 W/m 1,3 km/h (1 Bft)
30.03.2018 10:00 1,8 C 99 % 1004,1 hPa 0,0 l/m W 0,67 h 360 W/m 3,1 km/h (1 Bft)
30.03.2018 11:00 5,6 C 95 % 1003,0 hPa 0,0 l/m W 0,92 h 493 W/m 5,3 km/h (1 Bft)
30.03.2018 12:00 9,3 C 83 % 1001,4 hPa 0,0 l/m O-NO 1,00 h 566 W/m 10,7 km/h (2 Bft)
30.03.2018 13:00 12,4 C 63 % 1000,1 hPa 0,0 l/m O-SO 0,92 h 472 W/m 18,9 km/h (3 Bft)
30.03.2018 14:00 13,7 C 52 % 999,0 hPa 0,0 l/m O-SO 1,00 h 643 W/m 26,1 km/h (4 Bft)
30.03.2018 15:00 14,7 C 50 % 997,4 hPa 0,0 l/m O-SO 1,00 h 600 W/m 26,8 km/h (4 Bft)
30.03.2018 16:00 14,6 C 53 % 996,1 hPa 0,0 l/m O 0,67 h 328 W/m 24,5 km/h (4 Bft)
30.03.2018 17:00 13,8 C 59 % 995,5 hPa 0,0 l/m O-SO 0,00 h 130 W/m 17,3 km/h (3 Bft)
30.03.2018 18:00 13,1 C 62 % 995,1 hPa 0,0 l/m SO 0,00 h 62 W/m 12,0 km/h (2 Bft)
30.03.2018 19:00 12,2 C 67 % 995,4 hPa 0,0 l/m S 0,00 h 11 W/m 9,1 km/h (2 Bft)
30.03.2018 20:00 8,8 C 79 % 997,2 hPa 0,4 l/m W-NW 0,00 h 0 W/m 34,1 km/h (5 Bft)
30.03.2018 21:00 6,8 C 90 % 999,0 hPa 2,0 l/m SW 0,00 h 0 W/m 12,6 km/h (3 Bft)
30.03.2018 22:00 6,1 C 93 % 999,4 hPa 3,4 l/m W 0,00 h 0 W/m 11,0 km/h (2 Bft)
30.03.2018 23:00 5,1 C 93 % 999,7 hPa 2,8 l/m W 0,00 h 0 W/m 9,7 km/h (2 Bft)
31.03.2018 00:00 4,4 C 94 % 999,5 hPa 1,0 l/m W-SW 0,00 h 0 W/m 10,1 km/h (2 Bft)
31.03.2018 01:00 4,2 C 95 % 999,1 hPa 0,4 l/m SW 0,00 h 0 W/m 10,1 km/h (2 Bft)
31.03.2018 02:00 3,9 C 96 % 999,0 hPa 0,6 l/m SW 0,00 h 0 W/m 14,6 km/h (3 Bft)
31.03.2018 03:00 3,2 C 96 % 998,9 hPa 0,2 l/m SW 0,00 h 0 W/m 9,6 km/h (2 Bft)
31.03.2018 04:00 2,8 C 96 % 998,5 hPa 0,2 l/m N 0,00 h 0 W/m 0,8 km/h (0 Bft)
31.03.2018 05:00 2,7 C 96 % 998,1 hPa 0,0 l/m SW 0,00 h 0 W/m 4,3 km/h (1 Bft)
31.03.2018 06:00 2,6 C 97 % 998,0 hPa 0,0 l/m SW 0,00 h 0 W/m 3,5 km/h (1 Bft)
31.03.2018 07:00 2,7 C 97 % 998,2 hPa 0,0 l/m N 0,00 h 7 W/m 0,0 km/h (0 Bft)
31.03.2018 08:00 3,0 C 97 % 998,0 hPa 0,0 l/m N 0,00 h 86 W/m 0,5 km/h (0 Bft)
31.03.2018 09:00 3,8 C 97 % 997,8 hPa 0,0 l/m SW 0,00 h 120 W/m 2,4 km/h (1 Bft)
31.03.2018 10:00 4,4 C 95 % 997,8 hPa 0,0 l/m SW 0,00 h 138 W/m 3,7 km/h (1 Bft)
31.03.2018 11:00 4,9 C 94 % 997,8 hPa 0,0 l/m N 0,00 h 173 W/m 0,8 km/h (0 Bft)
31.03.2018 12:00 5,5 C 91 % 997,7 hPa 0,0 l/m N 0,00 h 210 W/m 0,4 km/h (0 Bft)
31.03.2018 13:00 6,6 C 87 % 997,5 hPa 0,0 l/m W-SW 0,00 h 312 W/m 2,4 km/h (1 Bft)
31.03.2018 14:00 7,1 C 82 % 997,7 hPa 0,0 l/m N 0,00 h 204 W/m 1,9 km/h (1 Bft)
31.03.2018 15:00 7,5 C 80 % 997,2 hPa 0,0 l/m W-SW 0,25 h 311 W/m 5,4 km/h (1 Bft)
31.03.2018 16:00 9,1 C 73 % 996,9 hPa 0,0 l/m W-NW 0,75 h 363 W/m 10,6 km/h (2 Bft)
31.03.2018 17:00 9,1 C 70 % 997,3 hPa 0,0 l/m W-NW 0,33 h 199 W/m 6,6 km/h (2 Bft)
31.03.2018 18:00 7,7 C 87 % 997,7 hPa 0,0 l/m SW 0,00 h 80 W/m 12,1 km/h (2 Bft)
31.03.2018 19:00 6,8 C 88 % 998,5 hPa 0,0 l/m W 0,08 h 25 W/m 9,5 km/h (2 Bft)
31.03.2018 20:00 6,1 C 88 % 999,4 hPa 0,0 l/m W 0,00 h 0 W/m 5,1 km/h (1 Bft)
31.03.2018 21:00 5,3 C 89 % 1000,4 hPa 0,0 l/m N 0,00 h 0 W/m 1,1 km/h (0 Bft)
31.03.2018 22:00 4,1 C 91 % 1001,3 hPa 0,0 l/m N 0,00 h 0 W/m 0,0 km/h (0 Bft)
31.03.2018 23:00 3,6 C 93 % 1001,7 hPa 0,0 l/m W 0,00 h 0 W/m 2,3 km/h (1 Bft)
01.04.2018 00:00 3,1 C 94 % 1002,2 hPa 0,0 l/m W 0,00 h 0 W/m 5,8 km/h (1 Bft)
01.04.2018 01:00 2,9 C 95 % 1002,9 hPa 0,0 l/m W-SW 0,00 h 0 W/m 5,5 km/h (1 Bft)
01.04.2018 02:00 2,8 C 96 % 1003,4 hPa 0,0 l/m W-SW 0,00 h 0 W/m 5,2 km/h (1 Bft)
01.04.2018 03:00 3,0 C 96 % 1003,7 hPa 0,0 l/m SW 0,00 h 0 W/m 8,7 km/h (2 Bft)
01.04.2018 04:00 3,6 C 96 % 1004,2 hPa 0,0 l/m W-SW 0,00 h 0 W/m 8,9 km/h (2 Bft)
01.04.2018 05:00 3,5 C 96 % 1004,5 hPa 0,0 l/m SW 0,00 h 0 W/m 13,3 km/h (3 Bft)
01.04.2018 06:00 3,4 C 95 % 1005,3 hPa 0,0 l/m W-SW 0,00 h 0 W/m 14,6 km/h (3 Bft)
01.04.2018 07:00 3,7 C 93 % 1006,0 hPa 0,0 l/m W-SW 0,00 h 6 W/m 15,2 km/h (3 Bft)
01.04.2018 08:00 3,8 C 91 % 1007,1 hPa 0,2 l/m W 0,00 h 42 W/m 22,1 km/h (4 Bft)
01.04.2018 09:00 4,3 C 89 % 1007,9 hPa 0,0 l/m W-SW 0,00 h 128 W/m 18,5 km/h (3 Bft)
01.04.2018 10:00 5,3 C 85 % 1008,6 hPa 0,0 l/m W-SW 0,00 h 227 W/m 25,6 km/h (4 Bft)
01.04.2018 11:00 6,1 C 80 % 1009,0 hPa 0,0 l/m W 0,17 h 248 W/m 24,8 km/h (4 Bft)
01.04.2018 12:00 6,5 C 81 % 1009,0 hPa 0,0 l/m W-SW 0,33 h 458 W/m 27,5 km/h (4 Bft)
01.04.2018 13:00 6,2 C 82 % 1009,3 hPa 0,8 l/m W-NW 0,08 h 233 W/m 29,0 km/h (5 Bft)
01.04.2018 14:00 5,4 C 89 % 1009,3 hPa 0,2 l/m W 0,17 h 308 W/m 19,6 km/h (3 Bft)
01.04.2018 15:00 7,0 C 74 % 1009,6 hPa 0,0 l/m W 0,17 h 291 W/m 28,8 km/h (5 Bft)
01.04.2018 16:00 7,2 C 71 % 1010,2 hPa 0,2 l/m W 0,08 h 168 W/m 29,1 km/h (5 Bft)
01.04.2018 17:00 4,8 C 83 % 1010,9 hPa 2,0 l/m W 0,00 h 56 W/m 19,4 km/h (3 Bft)
01.04.2018 18:00 4,3 C 92 % 1011,6 hPa 1,0 l/m W-NW 0,00 h 47 W/m 4,0 km/h (1 Bft)
01.04.2018 19:00 3,2 C 92 % 1012,4 hPa 0,8 l/m W 0,08 h 18 W/m 8,7 km/h (2 Bft)
01.04.2018 20:00 3,2 C 94 % 1013,1 hPa 0,4 l/m W-NW 0,00 h 0 W/m 12,6 km/h (3 Bft)
01.04.2018 21:00 3,2 C 93 % 1014,1 hPa 0,4 l/m W 0,00 h 0 W/m 11,1 km/h (2 Bft)
01.04.2018 22:00 3,3 C 92 % 1014,4 hPa 0,4 l/m W 0,00 h 0 W/m 9,7 km/h (2 Bft)
01.04.2018 23:00 3,3 C 91 % 1014,3 hPa 0,2 l/m W 0,00 h 0 W/m 7,4 km/h (2 Bft)
Min-Datum _ 30.03.18 26.03.18 30.03.18 - - - - 26.03.18
_ Min-Zeit 07:30 14:30 18:25 - - - - 01:30
Minimum _ -0,7 C 48 % 995,0 hPa - - - - 0,0 km/h (0 Bft)
Max-Datum _ 30.03.18 30.03.18 27.03.18 30.03.18 - 26.03.18 01.04.18 01.04.18
_ Max-Zeit 16:05 03:05 08:55 22:00 - 08:35 12:40 15:00
Maximum _ 15,3 C 100 % 1015,8 hPa 3,4 l/m - 0,08 h 979 W/m 46,7 km/h
W-NW (6 Bft)
Durchschnitt _ 5,8 C 84 % 1006,3 hPa #25,2 l/m W-SW #20:15 h 209 W/m 10,8 km/h (2 Bft)